createdAt,value
2018-05-04T00:00:28.127Z,84.94
2018-05-04T00:01:28.077Z,85.03
2018-05-04T00:02:28.052Z,84.65
2018-05-04T00:03:27.999Z,84.75
2018-05-04T00:04:27.934Z,84.42
2018-05-04T00:05:27.877Z,84.56
2018-05-04T00:06:27.830Z,84.42
2018-05-04T00:07:27.779Z,84.65
2018-05-04T00:08:27.753Z,84.89
2018-05-04T00:09:27.683Z,84.61
2018-05-04T00:10:27.637Z,84.46
2018-05-04T00:11:27.585Z,84.80
2018-05-04T00:12:27.536Z,84.65
2018-05-04T00:13:27.514Z,84.61
2018-05-04T00:14:27.437Z,84.23
2018-05-04T00:15:27.390Z,84.13
2018-05-04T00:16:27.339Z,84.17
2018-05-04T00:17:27.297Z,84.13
2018-05-04T00:18:27.264Z,84.08
2018-05-04T00:19:27.188Z,84.13
2018-05-04T00:20:27.137Z,84.52
2018-05-04T00:21:27.090Z,83.85
2018-05-04T00:22:27.041Z,83.85
2018-05-04T00:23:27.012Z,84.04
2018-05-04T00:24:26.941Z,84.04
2018-05-04T00:25:26.892Z,83.85
2018-05-04T00:26:26.844Z,84.04
2018-05-04T00:27:26.795Z,83.94
2018-05-04T00:28:26.782Z,84.13
2018-05-04T00:29:26.705Z,83.94
2018-05-04T00:30:26.652Z,84.04
2018-05-04T00:31:26.593Z,83.85
2018-05-04T00:32:26.550Z,84.04
2018-05-04T00:33:26.520Z,84.04
2018-05-04T00:34:26.448Z,84.13
2018-05-04T00:35:26.401Z,84.13
2018-05-04T00:36:26.348Z,83.65
2018-05-04T00:37:26.304Z,83.65
2018-05-04T00:38:26.272Z,83.85
2018-05-04T00:39:26.206Z,84.13
2018-05-04T00:40:26.156Z,84.04
2018-05-04T00:41:26.098Z,84.04
2018-05-04T00:42:26.056Z,84.04
2018-05-04T00:43:26.026Z,84.04
2018-05-04T00:44:25.954Z,84.42
2018-05-04T00:45:25.905Z,84.04
2018-05-04T00:46:25.855Z,84.99
2018-05-04T00:47:25.806Z,84.52
2018-05-04T00:48:25.779Z,84.89
2018-05-04T00:49:25.709Z,84.61
2018-05-04T00:50:25.653Z,84.61
2018-05-04T00:51:25.605Z,84.89
2018-05-04T00:52:25.558Z,84.61
2018-05-04T00:53:25.531Z,84.23
2018-05-04T00:54:25.456Z,84.23
2018-05-04T00:55:25.409Z,84.80
2018-05-04T00:56:25.358Z,84.42
2018-05-04T00:57:25.310Z,84.23
2018-05-04T00:58:25.285Z,84.70
2018-05-04T00:59:25.207Z,84.61
2018-05-04T01:00:25.162Z,84.42
2018-05-04T01:01:25.110Z,84.61
2018-05-04T01:02:25.060Z,84.42
2018-05-04T01:03:25.035Z,85.08
2018-05-04T01:04:24.963Z,84.80
2018-05-04T01:05:24.913Z,84.70
2018-05-04T01:06:24.860Z,85.56
2018-05-04T01:07:24.813Z,85.18
2018-05-04T01:08:24.790Z,85.08
2018-05-04T01:09:24.722Z,85.28
2018-05-04T01:10:24.665Z,85.28
2018-05-04T01:11:24.620Z,84.99
2018-05-04T01:12:24.566Z,85.28
2018-05-04T01:13:24.544Z,85.18
2018-05-04T01:14:24.476Z,84.89
2018-05-04T01:15:24.418Z,84.89
2018-05-04T01:16:24.372Z,85.56
2018-05-04T01:17:24.320Z,85.47
2018-05-04T01:18:24.295Z,85.18
2018-05-04T01:19:24.219Z,85.37
2018-05-04T01:20:24.171Z,85.18
2018-05-04T01:21:24.117Z,84.99
2018-05-04T01:22:24.071Z,85.28
2018-05-04T01:23:24.043Z,85.85
2018-05-04T01:24:23.969Z,85.94
2018-05-04T01:25:23.925Z,85.94
2018-05-04T01:26:23.870Z,85.85
2018-05-04T01:27:23.820Z,85.66
2018-05-04T01:28:23.796Z,85.28
2018-05-04T01:29:23.721Z,84.99
2018-05-04T01:30:23.676Z,85.28
2018-05-04T01:31:23.624Z,85.28
2018-05-04T01:32:23.572Z,85.18
2018-05-04T01:33:23.554Z,84.99
2018-05-04T01:34:23.475Z,85.85
2018-05-04T01:35:23.423Z,85.85
2018-05-04T01:36:23.379Z,85.56
2018-05-04T01:37:23.327Z,85.08
2018-05-04T01:38:23.302Z,85.85
2018-05-04T01:39:23.228Z,85.75
2018-05-04T01:40:23.175Z,85.75
2018-05-04T01:41:23.126Z,85.75
2018-05-04T01:42:23.080Z,85.08
2018-05-04T01:43:23.054Z,85.47
2018-05-04T01:44:22.980Z,86.04
2018-05-04T01:45:30.720Z,86.32
2018-05-04T01:46:22.882Z,85.08
2018-05-04T01:47:22.828Z,85.66
2018-05-04T01:48:22.818Z,85.08
2018-05-04T01:49:22.731Z,86.04
2018-05-04T01:50:22.682Z,86.04
2018-05-04T01:51:22.630Z,85.47
2018-05-04T01:52:22.580Z,85.85
2018-05-04T01:53:22.534Z,86.04
2018-05-04T01:54:22.507Z,86.13
2018-05-04T01:55:22.430Z,85.94
2018-05-04T01:56:22.385Z,86.51
2018-05-04T01:57:22.333Z,86.22
2018-05-04T01:58:22.285Z,86.04
2018-05-04T01:59:22.258Z,86.04
2018-05-04T02:00:22.185Z,86.32
2018-05-04T02:01:22.136Z,86.04
2018-05-04T02:02:22.087Z,85.85
2018-05-04T02:03:22.033Z,86.04
2018-05-04T02:04:22.008Z,86.18
2018-05-04T02:05:21.937Z,86.80
2018-05-04T02:06:21.886Z,86.04
2018-05-04T02:07:21.838Z,85.90
2018-05-04T02:08:21.786Z,86.13
2018-05-04T02:09:21.760Z,86.04
2018-05-04T02:10:21.693Z,85.99
2018-05-04T02:11:21.639Z,86.42
2018-05-04T02:12:21.589Z,86.04
2018-05-04T02:13:21.545Z,86.04
2018-05-04T02:14:21.515Z,86.61
2018-05-04T02:15:21.439Z,86.57
2018-05-04T02:16:21.393Z,86.32
2018-05-04T02:17:21.339Z,86.09
2018-05-04T02:18:21.295Z,86.09
2018-05-04T02:19:21.265Z,86.51
2018-05-04T02:20:21.192Z,86.61
2018-05-04T02:21:21.145Z,86.28
2018-05-04T02:22:21.092Z,86.76
2018-05-04T02:23:21.044Z,86.66
2018-05-04T02:24:21.019Z,86.57
2018-05-04T02:25:20.945Z,86.85
2018-05-04T02:26:20.934Z,86.76
2018-05-04T02:27:20.846Z,87.04
2018-05-04T02:28:20.798Z,86.94
2018-05-04T02:29:20.770Z,87.23
2018-05-04T02:30:20.700Z,87.13
2018-05-04T02:31:20.648Z,87.13
2018-05-04T02:32:20.599Z,87.32
2018-05-04T02:33:20.551Z,87.13
2018-05-04T02:34:20.523Z,87.80
2018-05-04T02:35:20.452Z,87.13
2018-05-04T02:36:20.398Z,87.23
2018-05-04T02:37:20.350Z,87.80
2018-05-04T02:38:20.304Z,87.52
2018-05-04T02:39:20.281Z,87.90
2018-05-04T02:40:20.206Z,88.37
2018-05-04T02:41:20.152Z,88.94
2018-05-04T02:42:20.106Z,88.18
2018-05-04T02:43:20.058Z,89.04
2018-05-04T02:44:20.030Z,88.75
2018-05-04T02:45:19.957Z,88.66
2018-05-04T02:46:19.903Z,89.32
2018-05-04T02:47:19.857Z,89.99
2018-05-04T02:48:19.809Z,89.42
2018-05-04T02:49:19.779Z,89.61
2018-05-04T02:50:19.712Z,89.32
2018-05-04T02:51:19.658Z,89.99
2018-05-04T02:52:19.611Z,89.70
2018-05-04T02:53:19.556Z,89.42
2018-05-04T02:54:19.534Z,89.51
2018-05-04T02:55:19.561Z,89.32
2018-05-04T02:56:19.413Z,89.23
2018-05-04T02:57:19.361Z,88.85
2018-05-04T02:58:19.310Z,88.75
2018-05-04T02:59:19.283Z,88.56
2018-05-04T03:00:19.211Z,89.04
2018-05-04T03:01:19.164Z,88.94
2018-05-04T03:02:19.113Z,88.56
2018-05-04T03:03:19.065Z,88.56
2018-05-04T03:04:19.039Z,88.85
2018-05-04T03:05:18.965Z,88.85
2018-05-04T03:06:18.919Z,88.75
2018-05-04T03:07:18.864Z,88.56
2018-05-04T03:08:18.829Z,89.51
2018-05-04T03:09:18.794Z,89.42
2018-05-04T03:10:18.716Z,89.23
2018-05-04T03:11:18.666Z,89.99
2018-05-04T03:12:18.619Z,89.42
2018-05-04T03:13:18.568Z,89.51
2018-05-04T03:14:18.541Z,88.46
2018-05-04T03:15:18.487Z,89.04
2018-05-04T03:16:18.419Z,88.75
2018-05-04T03:17:18.368Z,88.66
2018-05-04T03:18:18.319Z,89.04
2018-05-04T03:19:18.294Z,88.56
2018-05-04T03:20:18.220Z,89.04
2018-05-04T03:21:18.173Z,89.32
2018-05-04T03:22:18.128Z,89.99
2018-05-04T03:23:18.071Z,89.99
2018-05-04T03:24:18.045Z,90.08
2018-05-04T03:25:17.973Z,90.70
2018-05-04T03:26:17.924Z,90.37
2018-05-04T03:27:17.873Z,89.94
2018-05-04T03:28:17.824Z,89.66
2018-05-04T03:29:17.799Z,89.28
2018-05-04T03:30:17.727Z,88.90
2018-05-04T03:31:17.675Z,89.85
2018-05-04T03:32:17.623Z,90.23
2018-05-04T03:33:17.574Z,89.47
2018-05-04T03:34:17.558Z,90.37
2018-05-04T03:35:17.475Z,91.08
2018-05-04T03:36:17.425Z,90.23
2018-05-04T03:37:17.375Z,90.18
2018-05-04T03:38:17.330Z,89.75
2018-05-04T03:39:17.274Z,88.90
2018-05-04T03:40:17.246Z,89.28
2018-05-04T03:41:17.176Z,90.14
2018-05-04T03:42:17.127Z,89.94
2018-05-04T03:43:17.075Z,88.90
2018-05-04T03:44:17.026Z,89.51
2018-05-04T03:45:17.002Z,90.18
2018-05-04T03:46:16.934Z,88.56
2018-05-04T03:47:16.878Z,89.14
2018-05-04T03:48:16.830Z,89.42
2018-05-04T03:49:16.780Z,90.37
2018-05-04T03:50:16.756Z,89.99
2018-05-04T03:51:16.682Z,90.47
2018-05-04T03:52:16.632Z,90.18
2018-05-04T03:53:16.581Z,90.14
2018-05-04T03:54:16.531Z,89.94
2018-05-04T03:55:16.503Z,89.47
2018-05-04T03:56:16.433Z,90.33
2018-05-04T03:57:16.382Z,90.52
2018-05-04T03:58:16.330Z,90.61
2018-05-04T03:59:16.287Z,91.85
2018-05-04T04:00:16.257Z,91.18
2018-05-04T04:01:16.189Z,90.99
2018-05-04T04:02:16.137Z,91.75
2018-05-04T04:03:16.085Z,91.66
2018-05-04T04:04:16.034Z,92.13
2018-05-04T04:05:16.010Z,91.66
2018-05-04T04:06:15.939Z,91.66
2018-05-04T04:07:15.904Z,91.47
2018-05-04T04:08:15.837Z,90.80
2018-05-04T04:09:15.787Z,91.08
2018-05-04T04:10:15.760Z,90.80
2018-05-04T04:11:15.686Z,90.89
2018-05-04T04:12:15.634Z,91.08
2018-05-04T04:13:15.585Z,91.28
2018-05-04T04:14:15.538Z,91.28
2018-05-04T04:15:15.510Z,90.33
2018-05-04T04:16:15.435Z,90.75
2018-05-04T04:17:15.387Z,91.37
2018-05-04T04:18:15.338Z,91.13
2018-05-04T04:19:15.289Z,90.66
2018-05-04T04:20:15.274Z,91.32
2018-05-04T04:21:15.188Z,91.28
2018-05-04T04:22:15.139Z,91.37
2018-05-04T04:23:15.090Z,91.47
2018-05-04T04:24:15.042Z,92.32
2018-05-04T04:25:15.016Z,92.32
2018-05-04T04:26:14.945Z,92.51
2018-05-04T04:27:14.897Z,92.32
2018-05-04T04:28:14.887Z,92.89
2018-05-04T04:29:14.787Z,92.32
2018-05-04T04:30:14.766Z,90.99
2018-05-04T04:31:14.690Z,89.66
2018-05-04T04:32:14.641Z,90.23
2018-05-04T04:33:14.595Z,91.47
2018-05-04T04:34:14.541Z,91.08
2018-05-04T04:35:14.518Z,91.28
2018-05-04T04:36:14.446Z,91.32
2018-05-04T04:37:14.397Z,90.52
2018-05-04T04:38:14.342Z,90.66
2018-05-04T04:39:14.292Z,90.75
2018-05-04T04:40:14.268Z,91.22
2018-05-04T04:41:14.191Z,90.37
2018-05-04T04:42:14.148Z,89.14
2018-05-04T04:43:14.092Z,89.14
2018-05-04T04:44:14.046Z,89.70
2018-05-04T04:45:14.017Z,88.85
2018-05-04T04:46:13.943Z,88.09
2018-05-04T04:47:13.895Z,88.37
2018-05-04T04:48:13.848Z,88.94
2018-05-04T04:49:13.797Z,88.85
2018-05-04T04:50:13.770Z,89.61
2018-05-04T04:51:13.704Z,89.61
2018-05-04T04:52:13.648Z,88.75
2018-05-04T04:53:13.602Z,87.90
2018-05-04T04:54:13.552Z,88.46
2018-05-04T04:55:13.541Z,89.04
2018-05-04T04:56:13.448Z,88.66
2018-05-04T04:57:13.406Z,88.75
2018-05-04T04:58:13.351Z,88.46
2018-05-04T04:59:13.305Z,89.99
2018-05-04T05:00:13.267Z,88.94
2018-05-04T05:01:13.229Z,88.37
2018-05-04T05:02:13.165Z,89.04
2018-05-04T05:03:13.106Z,88.75
2018-05-04T05:04:13.055Z,88.46
2018-05-04T05:05:13.011Z,89.75
2018-05-04T05:06:12.983Z,88.94
2018-05-04T05:07:12.907Z,88.79
2018-05-04T05:08:12.860Z,88.99
2018-05-04T05:09:12.811Z,88.51
2018-05-04T05:10:12.757Z,87.85
2018-05-04T05:11:12.731Z,87.27
2018-05-04T05:12:12.657Z,86.90
2018-05-04T05:13:12.612Z,86.80
2018-05-04T05:14:12.565Z,86.13
2018-05-04T05:15:12.509Z,85.13
2018-05-04T05:16:12.490Z,84.94
2018-05-04T05:17:12.417Z,84.46
2018-05-04T05:18:12.371Z,84.08
2018-05-04T05:19:12.320Z,82.89
2018-05-04T05:20:12.271Z,82.79
2018-05-04T05:21:12.246Z,83.36
2018-05-04T05:22:12.172Z,83.17
2018-05-04T05:23:12.121Z,82.21
2018-05-04T05:24:12.074Z,81.12
2018-05-04T05:25:12.024Z,81.21
2018-05-04T05:26:12.001Z,81.30
2018-05-04T05:27:11.927Z,81.02
2018-05-04T05:28:11.881Z,80.16
2018-05-04T05:29:11.831Z,78.92
2018-05-04T05:30:11.787Z,78.64
2018-05-04T05:31:11.757Z,78.83
2018-05-04T05:32:11.683Z,78.73
2018-05-04T05:33:11.636Z,78.73
2018-05-04T05:34:11.596Z,79.59
2018-05-04T05:35:11.547Z,79.59
2018-05-04T05:36:11.521Z,79.02
2018-05-04T05:37:11.450Z,78.83
2018-05-04T05:38:11.407Z,79.30
2018-05-04T05:39:11.347Z,79.59
2018-05-04T05:40:11.301Z,79.91
2018-05-04T05:41:11.277Z,80.11
2018-05-04T05:42:11.211Z,80.30
2018-05-04T05:43:11.157Z,79.97
2018-05-04T05:44:11.110Z,79.88
2018-05-04T05:45:11.064Z,79.78
2018-05-04T05:46:11.050Z,79.91
2018-05-04T05:47:10.968Z,80.49
2018-05-04T05:48:10.920Z,79.53
2018-05-04T05:49:10.870Z,79.91
2018-05-04T05:50:10.829Z,78.58
2018-05-04T05:51:10.803Z,77.25
2018-05-04T05:52:10.729Z,76.90
2018-05-04T05:53:10.681Z,75.53
2018-05-04T05:54:10.633Z,74.86
2018-05-04T05:55:10.591Z,75.05
2018-05-04T05:56:10.567Z,75.05
2018-05-04T05:57:10.490Z,75.28
2018-05-04T05:58:10.631Z,75.76
2018-05-04T05:59:10.396Z,75.95
2018-05-04T06:00:10.348Z,75.66
2018-05-04T06:01:10.321Z,75.85
2018-05-04T06:02:10.253Z,74.90
2018-05-04T06:03:10.205Z,75.09
2018-05-04T06:04:10.257Z,74.52
2018-05-04T06:05:10.112Z,73.88
2018-05-04T06:06:10.088Z,74.65
2018-05-04T06:07:10.019Z,73.69
2018-05-04T06:08:09.969Z,72.26
2018-05-04T06:09:09.924Z,72.36
2018-05-04T06:10:09.874Z,72.45
2018-05-04T06:11:09.851Z,73.60
2018-05-04T06:12:09.779Z,73.79
2018-05-04T06:13:09.736Z,73.83
2018-05-04T06:14:09.684Z,72.30
2018-05-04T06:15:09.677Z,70.77
2018-05-04T06:16:09.614Z,70.77
2018-05-04T06:17:09.546Z,70.87
2018-05-04T06:18:09.499Z,70.87
2018-05-04T06:19:09.453Z,71.15
2018-05-04T06:20:09.413Z,71.25
2018-05-04T06:21:09.381Z,71.06
2018-05-04T06:22:09.308Z,71.34
2018-05-04T06:23:09.263Z,70.77
2018-05-04T06:24:09.214Z,69.62
2018-05-04T06:25:09.236Z,69.66
2018-05-04T06:26:09.146Z,68.48
2018-05-04T06:27:09.073Z,69.37
2018-05-04T06:28:09.031Z,69.43
2018-05-04T06:29:08.980Z,68.70
2018-05-04T06:30:08.937Z,68.70
2018-05-04T06:31:08.910Z,68.32
2018-05-04T06:32:08.841Z,68.51
2018-05-04T06:33:08.795Z,68.70
2018-05-04T06:34:08.749Z,68.32
2018-05-04T06:35:08.703Z,70.81
2018-05-04T06:36:08.683Z,68.04
2018-05-04T06:37:08.628Z,67.75
2018-05-04T06:38:08.565Z,67.88
2018-05-04T06:39:08.518Z,66.44
2018-05-04T06:40:08.469Z,66.54
2018-05-04T06:41:08.423Z,66.06
2018-05-04T06:42:08.401Z,65.30
2018-05-04T06:43:08.330Z,66.44
2018-05-04T06:44:08.285Z,66.63
2018-05-04T06:45:08.239Z,68.16
2018-05-04T06:46:08.190Z,68.39
2018-05-04T06:47:08.168Z,68.29
2018-05-04T06:48:08.099Z,68.35
2018-05-04T06:49:08.049Z,67.11
2018-05-04T06:50:08.005Z,66.09
2018-05-04T06:51:07.965Z,65.52
2018-05-04T06:52:07.943Z,65.52
2018-05-04T06:53:07.914Z,65.42
2018-05-04T06:54:07.821Z,66.19
2018-05-04T06:55:07.789Z,66.13
2018-05-04T06:56:07.730Z,64.02
2018-05-04T06:57:07.707Z,64.31
2018-05-04T06:58:07.637Z,63.54
2018-05-04T06:59:07.589Z,62.71
2018-05-04T07:00:07.543Z,62.23
2018-05-04T07:01:07.497Z,62.33
2018-05-04T07:02:07.478Z,61.57
2018-05-04T07:03:07.406Z,60.61
2018-05-04T07:04:07.364Z,60.48
2018-05-04T07:05:07.314Z,60.48
2018-05-04T07:06:07.271Z,61.02
2018-05-04T07:07:07.246Z,61.51
2018-05-04T07:08:07.176Z,61.34
2018-05-04T07:09:07.131Z,61.34
2018-05-04T07:10:07.083Z,61.63
2018-05-04T07:11:07.039Z,61.72
2018-05-04T07:12:07.017Z,60.86
2018-05-04T07:13:06.962Z,60.64
2018-05-04T07:14:06.901Z,60.83
2018-05-04T07:15:06.903Z,61.69
2018-05-04T07:16:06.806Z,62.87
2018-05-04T07:17:06.791Z,63.16
2018-05-04T07:18:06.718Z,61.91
2018-05-04T07:19:06.678Z,60.48
2018-05-04T07:20:06.633Z,60.10
2018-05-04T07:21:06.582Z,59.81
2018-05-04T07:22:06.612Z,59.81
2018-05-04T07:23:06.491Z,60.77
2018-05-04T07:24:06.452Z,60.61
2018-05-04T07:25:06.398Z,60.58
2018-05-04T07:26:06.354Z,60.86
2018-05-04T07:27:06.328Z,62.71
2018-05-04T07:28:06.260Z,62.04
2018-05-04T07:29:06.215Z,61.47
2018-05-04T07:30:06.169Z,59.27
2018-05-04T07:31:06.121Z,58.40
2018-05-04T07:32:06.098Z,58.12
2018-05-04T07:33:06.030Z,58.59
2018-05-04T07:34:05.985Z,58.86
2018-05-04T07:35:05.940Z,59.65
2018-05-04T07:36:05.924Z,60.51
2018-05-04T07:37:05.873Z,61.66
2018-05-04T07:38:05.805Z,62.62
2018-05-04T07:39:05.753Z,61.47
2018-05-04T07:40:05.715Z,61.40
2018-05-04T07:41:05.663Z,64.28
2018-05-04T07:42:05.645Z,63.51
2018-05-04T07:43:05.621Z,61.60
2018-05-04T07:44:05.528Z,59.87
2018-05-04T07:45:05.485Z,59.42
2018-05-04T07:46:05.711Z,59.33
2018-05-04T07:47:05.419Z,59.90
2018-05-04T07:48:05.346Z,59.23
2018-05-04T07:49:05.300Z,59.23
2018-05-04T07:50:12.845Z,59.61
2018-05-04T07:51:05.209Z,57.70
2018-05-04T07:52:05.187Z,58.08
2018-05-04T07:53:05.117Z,59.13
2018-05-04T07:54:05.071Z,57.70
2018-05-04T07:55:05.028Z,56.93
2018-05-04T07:56:04.980Z,58.17
2018-05-04T07:57:04.957Z,60.19
2018-05-04T07:58:04.890Z,60.76
2018-05-04T07:59:04.854Z,58.94
2018-05-04T08:00:04.797Z,58.27
2018-05-04T08:01:04.776Z,60.76
2018-05-04T08:02:04.735Z,60.57
2018-05-04T08:03:04.689Z,61.15
2018-05-04T08:04:04.625Z,60.67
2018-05-04T08:05:04.572Z,60.38
2018-05-04T08:06:04.526Z,59.42
2018-05-04T08:07:04.480Z,59.33
2018-05-04T08:08:04.461Z,60.03
2018-05-04T08:09:04.391Z,60.03
2018-05-04T08:10:04.348Z,61.18
2018-05-04T08:11:04.300Z,60.89
2018-05-04T08:12:04.257Z,59.26
2018-05-04T08:13:04.233Z,57.53
2018-05-04T08:14:04.189Z,57.82
2018-05-04T08:15:04.154Z,60.12
2018-05-04T08:16:04.077Z,59.45
2018-05-04T08:17:04.036Z,58.04
2018-05-04T08:18:03.985Z,58.91
2018-05-04T08:19:03.943Z,58.42
2018-05-04T08:20:03.941Z,58.59
2018-05-04T08:21:03.880Z,58.69
2018-05-04T08:22:03.808Z,57.72
2018-05-04T08:23:03.757Z,56.67
2018-05-04T08:24:03.720Z,56.19
2018-05-04T08:25:03.672Z,56.67
2018-05-04T08:26:03.651Z,57.63
2018-05-04T08:27:03.579Z,57.92
2018-05-04T08:28:03.538Z,59.16
2018-05-04T08:29:03.491Z,59.64
2018-05-04T08:30:03.465Z,58.11
2018-05-04T08:31:03.424Z,57.15
2018-05-04T08:32:03.351Z,56.98
2018-05-04T08:33:03.312Z,56.60
2018-05-04T08:34:03.271Z,54.39
2018-05-04T08:35:03.225Z,52.48
2018-05-04T08:36:03.197Z,51.81
2018-05-04T08:37:03.130Z,52.57
2018-05-04T08:38:03.085Z,54.01
2018-05-04T08:39:03.041Z,53.79
2018-05-04T08:40:02.996Z,52.93
2018-05-04T08:41:02.975Z,54.37
2018-05-04T08:42:10.044Z,55.23
2018-05-04T08:43:02.929Z,55.52
2018-05-04T08:44:02.817Z,56.19
2018-05-04T08:45:02.772Z,55.07
2018-05-04T08:46:02.755Z,53.70
2018-05-04T08:47:02.688Z,53.99
2018-05-04T08:48:02.648Z,55.33
2018-05-04T08:49:02.592Z,56.09
2018-05-04T08:50:02.563Z,54.56
2018-05-04T08:51:02.546Z,55.33
2018-05-04T08:52:02.482Z,57.82
2018-05-04T08:53:02.410Z,59.33
2018-05-04T08:54:02.369Z,58.17
2018-05-04T08:55:02.324Z,56.93
2018-05-04T08:56:02.290Z,59.23
2018-05-04T08:57:02.272Z,57.34
2018-05-04T08:58:02.193Z,57.43
2018-05-04T08:59:02.142Z,58.01
2018-05-04T09:00:02.103Z,56.67
2018-05-04T09:01:02.054Z,55.62
2018-05-04T09:02:02.036Z,55.33
2018-05-04T09:03:01.962Z,54.39
2018-05-04T09:04:01.921Z,55.26
2018-05-04T09:05:01.876Z,52.74
2018-05-04T09:06:01.831Z,52.55
2018-05-04T09:07:01.807Z,52.93
2018-05-04T09:08:01.743Z,54.30
2018-05-04T09:09:01.697Z,53.72
2018-05-04T09:10:01.653Z,55.55
2018-05-04T09:11:01.607Z,52.76
2018-05-04T09:12:01.586Z,50.56
2018-05-04T09:13:01.519Z,51.32
2018-05-04T09:14:01.474Z,51.81
2018-05-04T09:15:01.427Z,52.48
2018-05-04T09:16:01.381Z,52.57
2018-05-04T09:17:01.359Z,54.01
2018-05-04T09:18:01.296Z,53.75
2018-05-04T09:19:01.249Z,52.67
2018-05-04T09:20:01.204Z,52.57
2018-05-04T09:21:01.161Z,48.25
2018-05-04T09:22:01.134Z,50.08
2018-05-04T09:23:01.073Z,49.31
2018-05-04T09:24:01.023Z,50.29
2018-05-04T09:25:00.978Z,52.12
2018-05-04T09:26:00.931Z,51.73
2018-05-04T09:27:00.914Z,50.01
2018-05-04T09:28:00.848Z,47.99
2018-05-04T09:29:00.802Z,47.80
2018-05-04T09:30:00.755Z,47.71
2018-05-04T09:31:00.746Z,46.81
2018-05-04T09:32:07.792Z,46.65
2018-05-04T09:33:00.619Z,47.49
2018-05-04T09:34:00.576Z,46.05
2018-05-04T09:35:00.534Z,46.05
2018-05-04T09:36:00.488Z,46.53
2018-05-04T09:37:00.465Z,47.49
2018-05-04T09:38:00.400Z,45.57
2018-05-04T09:39:00.354Z,45.28
2018-05-04T09:40:00.308Z,45.09
2018-05-04T09:41:00.262Z,45.28
2018-05-04T09:42:00.242Z,46.43
2018-05-04T09:43:00.173Z,48.35
2018-05-04T09:44:00.125Z,45.37
2018-05-04T09:45:00.082Z,45.28
2018-05-04T09:46:00.039Z,43.65
2018-05-04T09:47:00.044Z,41.83
2018-05-04T09:47:59.946Z,42.50
2018-05-04T09:48:59.945Z,43.94
2018-05-04T09:49:59.859Z,43.87
2018-05-04T09:50:59.818Z,43.00
2018-05-04T09:51:59.771Z,42.40
2018-05-04T09:52:59.747Z,43.27
2018-05-04T09:53:59.683Z,44.03
2018-05-04T09:54:59.635Z,43.36
2018-05-04T09:55:59.648Z,43.67
2018-05-04T09:56:59.544Z,43.96
2018-05-04T09:57:59.527Z,45.01
2018-05-04T09:58:59.532Z,44.54
2018-05-04T09:59:59.413Z,44.34
2018-05-04T10:00:59.369Z,44.44
2018-05-04T10:01:59.323Z,44.63
2018-05-04T10:02:59.300Z,44.54
2018-05-04T10:03:59.254Z,43.67
2018-05-04T10:04:59.188Z,43.19
2018-05-04T10:05:59.140Z,43.67
2018-05-04T10:06:59.099Z,43.00
2018-05-04T10:07:59.077Z,42.61
2018-05-04T10:08:59.008Z,43.57
2018-05-04T10:09:59.035Z,43.87
2018-05-04T10:10:58.918Z,45.11
2018-05-04T10:11:58.875Z,44.24
2018-05-04T10:12:58.857Z,44.06
2018-05-04T10:13:58.786Z,44.15
2018-05-04T10:14:58.738Z,44.37
2018-05-04T10:15:58.767Z,44.08
2018-05-04T10:16:58.649Z,43.31
2018-05-04T10:17:58.628Z,43.98
2018-05-04T10:18:58.563Z,43.31
2018-05-04T10:19:58.524Z,44.27
2018-05-04T10:20:58.488Z,44.24
2018-05-04T10:21:58.514Z,44.08
2018-05-04T10:22:58.407Z,45.04
2018-05-04T10:23:58.341Z,43.98
2018-05-04T10:24:58.294Z,44.34
2018-05-04T10:25:58.248Z,44.17
2018-05-04T10:26:58.204Z,45.14
2018-05-04T10:27:58.191Z,45.52
2018-05-04T10:28:58.129Z,45.52
2018-05-04T10:29:58.071Z,44.37
2018-05-04T10:30:58.029Z,42.16
2018-05-04T10:31:57.983Z,43.21
2018-05-04T10:32:57.965Z,44.08
2018-05-04T10:33:57.894Z,43.60
2018-05-04T10:34:57.852Z,43.12
2018-05-04T10:35:57.804Z,43.12
2018-05-04T10:36:57.762Z,42.73
2018-05-04T10:37:57.749Z,43.31
2018-05-04T10:38:57.818Z,42.52
2018-05-04T10:39:57.630Z,43.19
2018-05-04T10:40:57.586Z,44.44
2018-05-04T10:41:57.544Z,45.68
2018-05-04T10:42:57.516Z,46.07
2018-05-04T10:43:57.455Z,45.50
2018-05-04T10:44:57.409Z,46.55
2018-05-04T10:45:57.362Z,46.55
2018-05-04T10:46:57.316Z,44.92
2018-05-04T10:47:57.298Z,45.59
2018-05-04T10:48:57.264Z,44.15
2018-05-04T10:49:57.184Z,45.01
2018-05-04T10:50:57.155Z,46.00
2018-05-04T10:51:57.132Z,47.15
2018-05-04T10:52:57.077Z,46.38
2018-05-04T10:53:57.012Z,44.27
2018-05-04T10:54:56.967Z,44.15
2018-05-04T10:55:56.921Z,44.34
2018-05-04T10:56:56.876Z,45.98
2018-05-04T10:57:56.859Z,45.40
2018-05-04T10:58:56.785Z,46.36
2018-05-04T10:59:56.743Z,47.61
2018-05-04T11:00:56.696Z,46.09
2018-05-04T11:01:56.659Z,44.94
2018-05-04T11:02:56.630Z,44.63
2018-05-04T11:03:56.565Z,45.42
2018-05-04T11:04:56.520Z,46.19
2018-05-04T11:05:56.473Z,47.15
2018-05-04T11:06:56.426Z,45.21
2018-05-04T11:07:56.413Z,45.42
2018-05-04T11:08:56.337Z,43.38
2018-05-04T11:09:56.296Z,43.67
2018-05-04T11:10:56.250Z,45.11
2018-05-04T11:11:56.216Z,45.21
2018-05-04T11:13:03.220Z,44.24
2018-05-04T11:13:56.119Z,44.63
2018-05-04T11:14:56.071Z,46.94
2018-05-04T11:15:56.033Z,47.22
2018-05-04T11:16:55.983Z,47.71
2018-05-04T11:17:55.966Z,45.59
2018-05-04T11:18:55.893Z,45.30
2018-05-04T11:19:55.852Z,46.36
2018-05-04T11:20:55.806Z,46.55
2018-05-04T11:21:55.763Z,45.59
2018-05-04T11:22:55.737Z,46.65
2018-05-04T11:24:03.554Z,47.13
2018-05-04T11:24:55.623Z,46.84
2018-05-04T11:25:55.594Z,47.61
2018-05-04T11:26:55.539Z,47.61
2018-05-04T11:27:55.517Z,46.55
2018-05-04T11:28:55.448Z,47.99
2018-05-04T11:29:55.400Z,46.62
2018-05-04T11:30:55.360Z,47.39
2018-05-04T11:31:55.313Z,47.51
2018-05-04T11:32:55.294Z,47.99
2018-05-04T11:33:55.227Z,46.55
2018-05-04T11:34:55.180Z,46.55
2018-05-04T11:35:55.132Z,47.71
2018-05-04T11:36:55.089Z,47.51
2018-05-04T11:37:55.065Z,47.22
2018-05-04T11:38:55.020Z,47.51
2018-05-04T11:39:54.950Z,48.38
2018-05-04T11:40:54.906Z,47.71
2018-05-04T11:41:54.864Z,48.47
2018-05-04T11:42:54.844Z,49.82
2018-05-04T11:43:54.773Z,49.24
2018-05-04T11:44:54.727Z,48.18
2018-05-04T11:45:54.687Z,49.91
2018-05-04T11:46:54.642Z,50.58
2018-05-04T11:47:54.614Z,48.38
2018-05-04T11:48:54.547Z,50.01
2018-05-04T11:49:54.500Z,50.29
2018-05-04T11:50:54.532Z,49.91
2018-05-04T11:51:54.410Z,49.82
2018-05-04T11:52:54.392Z,50.78
2018-05-04T11:53:54.322Z,50.49
2018-05-04T11:54:54.278Z,49.82
2018-05-04T11:55:54.233Z,49.24
2018-05-04T11:56:54.190Z,49.91
2018-05-04T11:57:54.161Z,49.33
2018-05-04T11:58:54.096Z,50.49
2018-05-04T11:59:54.050Z,50.01
2018-05-04T12:00:54.003Z,50.58
2018-05-04T12:01:53.962Z,50.20
2018-05-04T12:02:53.943Z,49.72
2018-05-04T12:03:53.873Z,49.24
2018-05-04T12:04:53.908Z,49.93
2018-05-04T12:05:53.784Z,50.51
2018-05-04T12:06:53.736Z,51.37
2018-05-04T12:07:53.726Z,51.09
2018-05-04T12:08:53.648Z,51.18
2018-05-04T12:09:53.599Z,51.09
2018-05-04T12:10:53.617Z,50.61
2018-05-04T12:11:53.510Z,50.99
2018-05-04T12:12:53.466Z,49.36
2018-05-04T12:13:53.498Z,48.18
2018-05-04T12:14:53.378Z,47.89
2018-05-04T12:15:53.328Z,47.61
2018-05-04T12:16:53.290Z,48.47
2018-05-04T12:17:53.240Z,48.66
2018-05-04T12:18:53.221Z,49.72
2018-05-04T12:19:53.149Z,51.83
2018-05-04T12:20:53.108Z,50.58
2018-05-04T12:21:53.061Z,50.68
2018-05-04T12:22:53.105Z,49.62
2018-05-04T12:23:52.997Z,48.09
2018-05-04T12:24:52.927Z,49.24
2018-05-04T12:25:52.890Z,48.38
2018-05-04T12:26:52.840Z,48.95
2018-05-04T12:27:52.792Z,48.18
2018-05-04T12:28:52.844Z,47.99
2018-05-04T12:29:52.706Z,48.18
2018-05-04T12:30:52.655Z,48.28
2018-05-04T12:31:52.621Z,47.89
2018-05-04T12:32:52.571Z,47.41
2018-05-04T12:33:52.545Z,47.80
2018-05-04T12:34:52.481Z,47.99
2018-05-04T12:35:52.435Z,47.80
2018-05-04T12:36:52.391Z,49.05
2018-05-04T12:37:52.344Z,49.82
2018-05-04T12:38:52.323Z,48.18
2018-05-04T12:39:52.251Z,48.76
2018-05-04T12:40:52.210Z,49.33
2018-05-04T12:41:52.166Z,47.89
2018-05-04T12:42:52.118Z,47.80
2018-05-04T12:43:52.099Z,48.38
2018-05-04T12:44:52.029Z,47.99
2018-05-04T12:45:51.985Z,49.24
2018-05-04T12:46:51.943Z,49.62
2018-05-04T12:47:51.890Z,48.85
2018-05-04T12:48:51.875Z,47.99
2018-05-04T12:49:51.805Z,48.85
2018-05-04T12:50:51.759Z,48.38
2018-05-04T12:51:51.711Z,48.95